Time;durP1;ratioP1;P1;durP2;ratioP2;P2;SDS_P1;SDS_P2;PMS_P1;PMS_P2;Temp;Humidity;BMP_temperature;BMP_pressure;BME280_temperature;BME280_humidity;BME280_pressure;Samples;Min_cycle;Max_cycle;Signal;HPM_P1;HPM_P2
2021/10/24 00:01:30;;;;;;;20.55;9.93;;;;;;;5.78;100.00;95783.69;10412520;28;20537;-70
2021/10/24 00:06:31;;;;;;;16.23;8.00;;;;;;;6.04;100.00;95802.41;10414530;28;20415;-70
2021/10/24 00:11:31;;;;;;;21.92;11.00;;;;;;;5.90;100.00;95807.81;10415157;28;20534;-70
2021/10/24 00:16:32;;;;;;;18.40;10.13;;;;;;;5.84;100.00;95803.34;10398200;28;20032;-69
2021/10/24 00:21:32;;;;;;;19.60;10.15;;;;;;;5.71;100.00;95800.78;10397719;28;20351;-70
2021/10/24 00:26:33;;;;;;;25.23;10.15;;;;;;;5.64;100.00;95809.63;10405253;28;20083;-70
2021/10/24 00:31:33;;;;;;;17.60;8.95;;;;;;;5.71;100.00;95804.25;10440186;28;20033;-70
2021/10/24 00:36:33;;;;;;;16.30;7.88;;;;;;;5.69;100.00;95810.84;10438695;28;20036;-70
2021/10/24 00:41:34;;;;;;;18.80;9.48;;;;;;;5.68;100.00;95825.19;10421650;28;20025;-69
2021/10/24 00:46:34;;;;;;;21.98;10.80;;;;;;;5.62;100.00;95827.72;10438094;28;20486;-75
2021/10/24 00:51:35;;;;;;;28.17;11.83;;;;;;;5.69;100.00;95818.84;10421582;28;20037;-67
2021/10/24 00:56:40;;;;;;;25.85;12.35;;;;;;;5.69;100.00;95821.50;10438110;28;20298;-70
2021/10/24 01:01:40;;;;;;;21.25;10.60;;;;;;;5.60;100.00;95823.63;10421511;28;20289;-70
2021/10/24 01:06:41;;;;;;;31.50;12.17;;;;;;;5.61;100.00;95819.91;10438209;28;20343;-74
2021/10/24 01:11:44;;;;;;;22.75;12.88;;;;;;;5.65;100.00;95810.44;10456546;28;20263;-71
2021/10/24 01:16:45;;;;;;;26.90;13.10;;;;;;;5.72;100.00;95815.72;10438307;28;20025;-74
2021/10/24 01:21:46;;;;;;;24.73;12.68;;;;;;;5.71;100.00;95814.13;10447568;28;20036;-77
2021/10/24 01:26:46;;;;;;;24.38;12.73;;;;;;;5.59;100.00;95809.44;10447069;28;20067;-69
2021/10/24 01:31:46;;;;;;;26.38;13.05;;;;;;;5.61;100.00;95812.72;10447288;28;20024;-71
2021/10/24 01:36:48;;;;;;;25.13;11.80;;;;;;;5.90;100.00;95823.00;10488102;28;20207;-70
2021/10/24 01:41:48;;;;;;;24.35;10.95;;;;;;;5.99;100.00;95814.53;10469294;28;20021;-70
2021/10/24 01:46:48;;;;;;;25.42;12.80;;;;;;;5.86;100.00;95819.97;10487573;28;20532;-75
2021/10/24 01:51:49;;;;;;;24.13;11.33;;;;;;;5.68;100.00;95823.38;10469892;28;20036;-70
2021/10/24 01:56:49;;;;;;;24.85;12.60;;;;;;;5.85;100.00;95822.81;10469011;28;20275;-70
2021/10/24 02:01:50;;;;;;;22.48;11.40;;;;;;;6.01;100.00;95822.31;10444053;28;20120;-70
2021/10/24 02:06:50;;;;;;;22.47;12.33;;;;;;;6.02;100.00;95831.97;10442210;28;20029;-75
2021/10/24 02:11:51;;;;;;;28.08;12.30;;;;;;;6.08;100.00;95830.28;10445404;28;20283;-76
2021/10/24 02:16:51;;;;;;;26.98;13.43;;;;;;;6.07;100.00;95828.63;10427235;28;20630;-69
2021/10/24 02:21:52;;;;;;;26.30;12.00;;;;;;;5.82;100.00;95824.09;10427637;28;20025;-69
2021/10/24 02:26:53;;;;;;;25.23;12.52;;;;;;;5.91;100.00;95833.44;10467924;28;20094;-70
2021/10/24 02:31:53;;;;;;;27.02;13.45;;;;;;;5.71;100.00;95832.78;10451927;28;20027;-70
2021/10/24 02:36:54;;;;;;;31.93;14.90;;;;;;;5.48;100.00;95832.31;10427684;28;20044;-70
2021/10/24 02:41:55;;;;;;;35.28;15.50;;;;;;;5.43;100.00;95841.97;10442797;28;20271;-69
2021/10/24 02:46:58;;;;;;;38.70;16.33;;;;;;;5.39;100.00;95846.09;10442414;28;20024;-70
2021/10/24 02:51:59;;;;;;;32.15;15.18;;;;;;;5.46;100.00;95852.19;10442074;28;20364;-70
2021/10/24 02:57:02;;;;;;;32.15;13.93;;;;;;;5.34;100.00;95851.22;10425710;28;20028;-70
2021/10/24 03:02:03;;;;;;;30.40;15.27;;;;;;;5.35;100.00;95851.00;10426445;28;20029;-71
2021/10/24 03:07:04;;;;;;;35.08;14.02;;;;;;;5.36;100.00;95852.66;10425305;28;20025;-70
2021/10/24 03:12:04;;;;;;;32.28;15.18;;;;;;;5.41;100.00;95860.81;10464237;28;20028;-69
2021/10/24 03:17:05;;;;;;;36.70;15.90;;;;;;;5.44;100.00;95856.91;10466073;28;20016;-73
2021/10/24 03:22:05;;;;;;;38.10;16.63;;;;;;;5.60;100.00;95860.94;10465993;28;20394;-70
2021/10/24 03:27:06;;;;;;;31.52;14.85;;;;;;;5.77;100.00;95847.91;10446762;28;20037;-74
2021/10/24 03:32:06;;;;;;;33.38;14.43;;;;;;;5.98;100.00;95846.78;10424566;28;20047;-70
2021/10/24 03:37:07;;;;;;;25.92;13.18;;;;;;;5.97;100.00;95850.44;10406827;28;20025;-70
2021/10/24 03:42:07;;;;;;;28.35;14.02;;;;;;;5.94;100.00;95848.22;10440261;28;20029;-71
2021/10/24 03:47:08;;;;;;;26.52;13.25;;;;;;;5.75;100.00;95860.63;10423810;28;20033;-73
2021/10/24 03:52:08;;;;;;;27.63;13.27;;;;;;;5.88;100.00;95849.91;10462407;28;20032;-70
2021/10/24 03:57:08;;;;;;;29.30;13.07;;;;;;;5.93;100.00;95850.06;10464954;28;20173;-77
2021/10/24 04:02:09;;;;;;;32.00;14.77;;;;;;;5.86;100.00;95849.31;10464343;28;20270;-70
2021/10/24 04:07:10;;;;;;;29.40;12.13;;;;;;;5.81;100.00;95849.94;10451979;28;20290;-69
2021/10/24 04:12:11;;;;;;;31.85;13.23;;;;;;;5.85;100.00;95850.34;10439450;28;20271;-74
2021/10/24 04:17:11;;;;;;;28.70;13.23;;;;;;;5.52;100.00;95856.66;10439662;28;20025;-74
2021/10/24 04:22:12;;;;;;;32.50;14.47;;;;;;;5.43;100.00;95849.97;10439156;28;20012;-70
2021/10/24 04:27:12;;;;;;;27.25;13.77;;;;;;;5.38;100.00;95853.25;10463560;28;20299;-70
2021/10/24 04:32:12;;;;;;;31.80;15.18;;;;;;;5.25;100.00;95854.13;10463559;28;20028;-70
2021/10/24 04:37:13;;;;;;;33.72;13.80;;;;;;;5.18;100.00;95842.69;10462347;28;20021;-74
2021/10/24 04:42:14;;;;;;;36.67;15.70;;;;;;;5.10;100.00;95856.25;10405836;28;20017;-70
2021/10/24 04:47:14;;;;;;;30.52;13.18;;;;;;;5.03;100.00;95847.47;10440530;28;20025;-70
2021/10/24 04:52:15;;;;;;;27.25;12.73;;;;;;;5.01;100.00;95855.66;10459070;28;20021;-74
2021/10/24 04:57:16;;;;;;;24.55;14.13;;;;;;;5.08;100.00;95858.28;10421904;28;20108;-73
2021/10/24 05:02:16;;;;;;;42.17;13.85;;;;;;;5.20;100.00;95861.94;10453733;28;20024;-73
2021/10/24 05:07:17;;;;;;;23.45;12.55;;;;;;;5.30;100.00;95857.00;10480960;28;20029;-74
2021/10/24 05:12:17;;;;;;;29.98;12.68;;;;;;;5.47;100.00;95877.84;10480792;28;20024;-70
2021/10/24 05:17:18;;;;;;;26.35;11.07;;;;;;;5.64;100.00;95876.31;10481053;28;20582;-70
2021/10/24 05:22:20;;;;;;;31.52;12.20;;;;;;;5.51;100.00;95879.03;10446185;28;20043;-70
2021/10/24 05:27:20;;;;;;;27.42;12.35;;;;;;;5.67;100.00;95880.41;10446414;28;20052;-70
2021/10/24 05:32:21;;;;;;;26.90;11.70;;;;;;;5.78;100.00;95892.25;10481246;28;20410;-71
2021/10/24 05:37:21;;;;;;;25.73;11.60;;;;;;;5.84;100.00;95896.72;10462341;28;20021;-75
2021/10/24 05:42:22;;;;;;;25.33;12.27;;;;;;;6.03;100.00;95892.31;10481411;28;20136;-70
2021/10/24 05:47:22;;;;;;;20.92;11.38;;;;;;;5.79;100.00;95894.69;10462250;28;20033;-69
2021/10/24 05:52:23;;;;;;;23.42;12.10;;;;;;;5.98;100.00;95895.63;10453418;28;20020;-70
2021/10/24 05:57:23;;;;;;;28.38;12.38;;;;;;;6.05;100.00;95908.91;10445559;28;20041;-77
2021/10/24 06:02:24;;;;;;;24.10;11.85;;;;;;;6.00;100.00;95908.78;10440978;28;20524;-71
2021/10/24 06:07:25;;;;;;;25.83;12.75;;;;;;;6.08;100.00;95905.00;10488086;28;20407;-71
2021/10/24 06:17:30;;;;;;;21.67;11.00;;;;;;;6.26;100.00;95921.09;10477552;28;20736;-71
2021/10/24 06:22:31;;;;;;;27.50;11.70;;;;;;;6.39;100.00;95916.69;10459887;28;20402;-76
2021/10/24 06:27:34;;;;;;;21.00;10.45;;;;;;;6.58;100.00;95931.75;10461242;28;20068;-75
2021/10/24 06:32:35;;;;;;;23.75;10.85;;;;;;;6.43;100.00;95936.59;10434906;28;20035;-71
2021/10/24 06:37:46;;;;;;;26.88;12.07;;;;;;;6.53;100.00;95930.75;10441607;28;20412;-70
2021/10/24 06:42:47;;;;;;;24.73;11.60;;;;;;;6.81;100.00;95936.50;10442949;28;20021;-76
2021/10/24 06:47:48;;;;;;;25.38;12.38;;;;;;;6.93;100.00;95941.91;10441970;28;20095;-75
2021/10/24 06:52:48;;;;;;;20.13;10.13;;;;;;;7.19;100.00;95954.22;10440841;28;20025;-74
2021/10/24 06:57:52;;;;;;;20.17;10.07;;;;;;;7.31;100.00;95942.78;10444482;28;20055;-71
2021/10/24 07:02:53;;;;;;;22.10;9.73;;;;;;;7.38;100.00;95958.75;10442859;28;20040;-78
2021/10/24 07:07:53;;;;;;;18.63;9.93;;;;;;;7.95;100.00;95951.25;10462380;28;20350;-75
2021/10/24 07:12:54;;;;;;;21.30;9.85;;;;;;;8.37;100.00;95945.13;10470423;28;20465;-75
2021/10/24 07:17:54;;;;;;;21.17;10.63;;;;;;;8.37;100.00;95947.81;10424113;28;20418;-72
2021/10/24 07:22:55;;;;;;;25.92;15.27;;;;;;;8.66;100.00;95948.03;10421531;28;20021;-74
2021/10/24 07:27:55;;;;;;;24.15;11.52;;;;;;;9.25;100.00;95940.00;10423357;28;20057;-70
2021/10/24 07:32:56;;;;;;;23.42;8.73;;;;;;;9.18;100.00;95963.44;10423220;28;20043;-70
2021/10/24 07:37:57;;;;;;;22.27;8.82;;;;;;;9.33;100.00;95945.00;10441719;28;20174;-73
2021/10/24 07:42:57;;;;;;;27.13;10.52;;;;;;;10.03;100.00;95951.28;10483061;28;20040;-69
2021/10/24 07:47:58;;;;;;;17.85;7.63;;;;;;;10.18;100.00;95963.34;10447909;28;20038;-75
2021/10/24 07:53:00;;;;;;;24.80;8.70;;;;;;;10.22;100.00;95969.88;10451959;28;20029;-74
2021/10/24 07:58:01;;;;;;;13.57;7.30;;;;;;;9.85;100.00;95946.06;10460504;28;20028;-75
2021/10/24 08:03:05;;;;;;;15.77;8.52;;;;;;;9.80;100.00;95972.81;10450927;28;20036;-75
2021/10/24 08:08:06;;;;;;;16.85;8.88;;;;;;;9.68;100.00;95970.16;10472498;28;20062;-75
2021/10/24 08:13:06;;;;;;;23.90;9.90;;;;;;;10.03;100.00;95962.00;10477934;28;20490;-75
2021/10/24 08:18:08;;;;;;;18.10;8.57;;;;;;;10.28;100.00;95968.91;10457881;28;20032;-77
2021/10/24 08:23:08;;;;;;;19.90;8.57;;;;;;;10.59;100.00;95966.78;10444565;28;20287;-71
2021/10/24 08:28:10;;;;;;;12.23;7.17;;;;;;;9.90;100.00;95979.19;10458425;28;20052;-71
2021/10/24 08:33:15;;;;;;;14.68;6.22;;;;;;;9.87;100.00;95984.25;10463032;28;20059;-75
2021/10/24 08:38:15;;;;;;;15.57;6.25;;;;;;;10.03;100.00;95975.44;10462846;28;20029;-75
2021/10/24 08:43:19;;;;;;;15.48;8.48;;;;;;;9.52;100.00;95971.72;10474017;28;20459;-72
2021/10/24 08:48:20;;;;;;;13.15;7.07;;;;;;;10.98;100.00;95976.84;10448033;28;20584;-74
2021/10/24 08:53:25;;;;;;;14.97;6.90;;;;;;;11.91;100.00;95971.69;10427462;28;20036;-74
2021/10/24 08:58:27;;;;;;;12.52;5.88;;;;;;;12.68;83.30;95981.69;10462323;28;20275;-74
2021/10/24 09:03:27;;;;;;;19.83;7.55;;;;;;;12.96;82.56;95964.41;10461608;28;20501;-72
2021/10/24 09:08:28;;;;;;;11.23;5.73;;;;;;;13.20;80.85;95975.66;10456102;28;20038;-75
2021/10/24 09:13:34;;;;;;;52.15;47.63;;;;;;;13.39;77.05;95969.88;10441962;28;20266;-74
2021/10/24 09:18:40;;;;;;;10.85;5.40;;;;;;;14.00;68.18;95975.59;10462096;28;20107;-70
2021/10/24 09:23:50;;;;;;;11.05;4.78;;;;;;;14.27;63.61;95977.31;10441979;28;20056;-74
2021/10/24 09:29:06;;;;;;;9.15;4.85;;;;;;;15.11;59.52;95955.53;10459292;28;20375;-74
2021/10/24 09:34:25;;;;;;;25.70;23.58;;;;;;;16.99;52.47;95961.56;10462509;28;20025;-72
2021/10/24 09:39:27;;;;;;;7.15;3.55;;;;;;;20.39;41.37;95931.38;10468372;28;20566;-70
2021/10/24 09:44:27;;;;;;;7.32;3.88;;;;;;;23.06;37.04;95933.56;10456987;28;20486;-76
2021/10/24 09:49:28;;;;;;;5.33;2.87;;;;;;;24.38;34.06;95927.34;10445474;28;20033;-73
2021/10/24 09:54:28;;;;;;;6.38;3.10;;;;;;;24.91;30.70;95925.03;10444785;28;20695;-75
2021/10/24 09:59:29;;;;;;;5.13;3.27;;;;;;;26.12;30.29;95919.75;10444427;28;20380;-75
2021/10/24 10:04:29;;;;;;;5.35;2.70;;;;;;;23.80;31.19;95932.44;10451706;28;20067;-70
2021/10/24 10:09:30;;;;;;;5.33;3.00;;;;;;;21.61;34.36;95928.75;10452122;28;20028;-74
2021/10/24 10:14:34;;;;;;;4.07;2.23;;;;;;;23.82;31.49;95927.44;10443773;28;20279;-74
2021/10/24 10:19:36;;;;;;;3.78;1.90;;;;;;;24.72;28.93;95928.25;10444188;28;20278;-75
2021/10/24 10:24:37;;;;;;;3.47;2.40;;;;;;;19.79;34.80;95936.66;10472266;28;20119;-77
2021/10/24 10:29:53;;;;;;;5.37;2.60;;;;;;;23.61;31.57;95937.53;10467680;28;20506;-75
2021/10/24 10:34:59;;;;;;;3.15;2.45;;;;;;;25.68;29.78;95923.03;10485888;28;20025;-76
2021/10/24 10:40:00;;;;;;;6.10;2.42;;;;;;;26.03;28.43;95920.69;10468441;28;20032;-74
2021/10/24 10:45:16;;;;;;;6.13;2.67;;;;;;;27.32;27.34;95911.88;10486052;28;20021;-75
2021/10/24 10:50:33;;;;;;;12.98;2.70;;;;;;;27.39;26.63;95895.56;10467320;28;20040;-74
2021/10/24 10:55:55;;;;;;;5.47;2.28;;;;;;;26.89;27.71;95900.47;10467162;28;20387;-71
2021/10/24 11:00:56;;;;;;;3.88;2.10;;;;;;;28.00;25.99;95904.63;10464810;28;20047;-75
2021/10/24 11:05:57;;;;;;;3.55;2.60;;;;;;;28.08;26.37;95895.34;10465940;28;20108;-76
2021/10/24 11:10:57;;;;;;;4.43;2.10;;;;;;;28.41;25.85;95893.31;10464416;28;20032;-73
2021/10/24 11:16:37;;;;;;;5.13;2.27;;;;;;;28.25;25.11;95883.09;10465199;28;20032;-72
2021/10/24 11:21:38;;;;;;;3.78;1.90;;;;;;;26.99;25.69;95895.59;10451624;28;20483;-69
2021/10/24 11:26:39;;;;;;;4.07;2.22;;;;;;;25.50;27.32;95895.69;10438729;28;20056;-69
2021/10/24 11:31:39;;;;;;;8.38;3.55;;;;;;;21.82;30.75;95893.44;10464738;28;20441;-69
2021/10/24 11:36:44;;;;;;;5.97;3.30;;;;;;;19.04;36.60;95896.84;10462986;28;20027;-70
2021/10/24 11:41:45;;;;;;;10.15;4.97;;;;;;;16.98;39.87;95902.94;10480232;28;20293;-72
2021/10/24 11:46:47;;;;;;;5.80;3.22;;;;;;;15.73;40.70;95901.22;10455788;28;20039;-68
2021/10/24 11:51:52;;;;;;;6.40;2.78;;;;;;;14.80;44.16;95908.72;10454920;28;20464;-68
2021/10/24 11:57:16;;;;;;;6.00;3.50;;;;;;;14.22;45.96;95907.00;10460863;28;20035;-70
2021/10/24 12:02:18;;;;;;;10.15;3.90;;;;;;;13.80;50.61;95913.34;10422267;28;20083;-72
2021/10/24 12:07:18;;;;;;;4.50;2.70;;;;;;;13.55;50.66;95908.66;10421927;28;20036;-69
2021/10/24 12:12:23;;;;;;;5.47;3.63;;;;;;;13.39;52.17;95908.56;10443750;28;20475;-69
2021/10/24 12:17:32;;;;;;;8.82;3.47;;;;;;;12.95;54.24;95908.84;10464112;28;20048;-70
2021/10/24 12:22:43;;;;;;;6.20;3.53;;;;;;;13.18;55.92;95906.81;10462848;28;20186;-69
2021/10/24 12:27:46;;;;;;;5.90;3.40;;;;;;;12.90;55.18;95900.69;10462388;28;20117;-70
2021/10/24 12:33:01;;;;;;;12.25;3.40;;;;;;;12.41;61.70;95899.75;10462529;28;20124;-70
2021/10/24 12:38:04;;;;;;;7.50;3.38;;;;;;;12.10;59.72;95902.16;10476729;28;20029;-70
2021/10/24 12:43:13;;;;;;;5.65;3.03;;;;;;;11.91;59.33;95900.84;10438140;28;20082;-69
2021/10/24 12:48:14;;;;;;;8.25;3.75;;;;;;;11.68;67.63;95899.22;10404777;28;20029;-73
2021/10/24 12:53:17;;;;;;;8.05;3.75;;;;;;;11.55;73.62;95885.06;10472224;28;20028;-70
2021/10/24 12:58:18;;;;;;;8.13;3.45;;;;;;;11.30;66.39;95877.47;10479539;28;20032;-69
2021/10/24 13:03:18;;;;;;;6.93;3.40;;;;;;;11.38;70.79;95881.63;10462333;28;20024;-75
2021/10/24 13:08:19;;;;;;;7.47;3.23;;;;;;;11.22;69.85;95884.13;10462513;28;20115;-70
2021/10/24 13:13:19;;;;;;;9.05;3.75;;;;;;;11.40;75.54;95888.41;10462336;28;20267;-69
2021/10/24 13:18:20;;;;;;;15.50;3.63;;;;;;;11.02;73.63;95895.41;10470367;28;20035;-74
2021/10/24 13:23:21;;;;;;;8.05;3.72;;;;;;;10.90;69.92;95910.84;10470374;28;20294;-70
2021/10/24 13:28:21;;;;;;;7.40;3.47;;;;;;;10.88;79.52;95903.00;10487993;28;20060;-69
2021/10/24 13:33:22;;;;;;;7.13;3.13;;;;;;;11.01;73.91;95907.25;10442378;28;20660;-69
2021/10/24 13:38:23;;;;;;;8.60;3.63;;;;;;;11.21;70.40;95904.00;10429080;28;20525;-69
2021/10/24 13:43:23;;;;;;;9.57;4.07;;;;;;;11.27;70.93;95894.13;10445675;28;20094;-71
2021/10/24 13:48:24;;;;;;;13.65;3.15;;;;;;;11.34;71.09;95888.56;10428459;28;20474;-70
2021/10/24 13:53:25;;;;;;;6.78;3.42;;;;;;;10.95;66.24;95897.44;10468087;28;20025;-70
2021/10/24 13:58:26;;;;;;;6.03;2.90;;;;;;;10.79;64.47;95893.72;10468899;28;20024;-75
2021/10/24 14:03:27;;;;;;;6.60;3.15;;;;;;;10.76;68.72;95886.16;10433548;28;20457;-70
2021/10/24 14:08:27;;;;;;;7.32;3.28;;;;;;;10.78;73.30;95886.72;10449067;28;20021;-73
2021/10/24 14:13:28;;;;;;;4.77;3.10;;;;;;;10.80;70.13;95873.03;10451940;28;20017;-70
2021/10/24 14:18:28;;;;;;;9.07;4.18;;;;;;;10.65;73.50;95885.19;10454605;28;20278;-75
2021/10/24 14:23:29;;;;;;;9.57;4.20;;;;;;;10.57;79.25;95888.28;10452900;28;20044;-74
2021/10/24 14:28:30;;;;;;;5.35;3.15;;;;;;;10.31;73.38;95892.38;10467404;28;20414;-70
2021/10/24 14:33:31;;;;;;;7.93;3.72;;;;;;;10.27;72.42;95881.31;10466407;28;20028;-70
2021/10/24 14:38:32;;;;;;;8.10;3.47;;;;;;;10.27;69.41;95892.06;10465886;28;20119;-73
2021/10/24 14:43:32;;;;;;;6.80;3.33;;;;;;;10.08;70.80;95886.88;10466710;28;20510;-73
2021/10/24 14:48:33;;;;;;;8.13;3.80;;;;;;;10.05;67.90;95895.44;10466343;28;20266;-70
2021/10/24 14:53:33;;;;;;;7.28;2.50;;;;;;;10.12;73.54;95899.81;10466716;28;20110;-70
2021/10/24 14:58:33;;;;;;;5.43;2.90;;;;;;;10.12;80.73;95918.63;10465860;28;20024;-71
2021/10/24 15:03:34;;;;;;;9.70;4.57;;;;;;;9.89;82.78;95921.19;10465522;28;20294;-71
2021/10/24 15:08:34;;;;;;;7.93;4.13;;;;;;;9.88;72.75;95932.19;10466524;28;20029;-70
2021/10/24 15:13:35;;;;;;;10.67;3.63;;;;;;;9.85;71.03;95935.31;10484290;28;20028;-68
2021/10/24 15:23:55;;;;;;;8.57;3.00;;;;;;;9.77;65.64;95938.38;10442042;28;20029;-70
2021/10/24 15:28:56;;;;;;;5.32;2.60;;;;;;;9.71;61.78;95940.16;10442211;28;20076;-74
2021/10/24 15:33:59;;;;;;;4.68;2.25;;;;;;;9.63;67.58;95941.34;10439640;28;20021;-72
2021/10/24 15:39:00;;;;;;;6.43;2.83;;;;;;;9.46;68.45;95940.44;10439674;28;20027;-69
2021/10/24 15:44:03;;;;;;;8.10;2.80;;;;;;;9.39;71.92;95944.06;10441929;28;20025;-68
2021/10/24 15:49:03;;;;;;;7.68;2.60;;;;;;;9.37;73.11;95951.53;10422575;28;20116;-75
2021/10/24 15:54:05;;;;;;;6.57;2.78;;;;;;;9.21;73.18;95944.22;10448699;28;20029;-69
2021/10/24 15:59:06;;;;;;;5.75;2.55;;;;;;;9.14;70.96;95959.59;10464966;28;20588;-72
2021/10/24 16:04:06;;;;;;;7.60;2.65;;;;;;;9.02;69.11;95965.78;10447196;28;20036;-69
2021/10/24 16:09:07;;;;;;;9.82;4.63;;;;;;;8.89;74.25;95966.81;10462042;28;20028;-70
2021/10/24 16:14:09;;;;;;;9.82;4.88;;;;;;;8.70;76.35;95970.63;10438196;28;20021;-69
2021/10/24 16:19:09;;;;;;;10.10;5.32;;;;;;;8.61;86.30;95970.16;10438377;28;20686;-73
2021/10/24 16:24:09;;;;;;;7.97;4.00;;;;;;;8.53;87.58;95975.84;10428158;28;20025;-70
2021/10/24 16:29:10;;;;;;;10.70;4.07;;;;;;;8.46;94.08;95978.63;10422229;28;20088;-70
2021/10/24 16:34:10;;;;;;;12.70;4.95;;;;;;;8.29;100.00;95982.94;10421391;28;20565;-70
2021/10/24 16:39:11;;;;;;;12.17;4.33;;;;;;;8.09;100.00;95991.25;10421388;28;20044;-68
2021/10/24 16:44:11;;;;;;;12.60;5.50;;;;;;;7.93;100.00;95996.19;10421022;28;20290;-70
2021/10/24 16:49:11;;;;;;;14.98;7.50;;;;;;;7.83;100.00;96004.75;10420571;28;20753;-69
2021/10/24 16:54:12;;;;;;;17.53;7.60;;;;;;;7.49;100.00;95998.97;10420311;28;20478;-72
2021/10/24 16:59:13;;;;;;;17.52;8.68;;;;;;;7.22;100.00;96008.28;10421217;28;20279;-69
2021/10/24 17:04:13;;;;;;;14.15;6.97;;;;;;;6.94;100.00;96025.59;10438073;28;20487;-71
2021/10/24 17:09:14;;;;;;;12.17;6.47;;;;;;;6.70;100.00;96030.72;10460496;28;20032;-71
2021/10/24 17:14:14;;;;;;;17.55;9.10;;;;;;;6.49;100.00;96027.34;10444381;28;20929;-72
2021/10/24 17:19:15;;;;;;;14.00;6.50;;;;;;;6.39;100.00;96018.16;10462515;28;20082;-72
2021/10/24 17:24:17;;;;;;;17.30;7.18;;;;;;;6.53;100.00;96018.91;10403488;28;20033;-74
2021/10/24 17:29:17;;;;;;;12.73;6.05;;;;;;;6.48;100.00;96027.56;10458257;28;20114;-76
2021/10/24 17:34:18;;;;;;;21.73;7.93;;;;;;;6.28;100.00;96035.66;10474586;28;20116;-75
2021/10/24 17:39:18;;;;;;;17.48;7.63;;;;;;;6.11;100.00;96033.53;10461414;28;20388;-75
2021/10/24 17:44:19;;;;;;;15.52;6.15;;;;;;;6.00;100.00;96036.84;10461546;28;20024;-70
2021/10/24 17:49:19;;;;;;;34.10;8.80;;;;;;;5.95;100.00;96036.63;10461989;28;20354;-76
2021/10/24 17:54:19;;;;;;;22.20;7.03;;;;;;;5.85;100.00;96037.09;10479257;28;20357;-75
2021/10/24 17:59:20;;;;;;;17.73;8.10;;;;;;;5.87;100.00;96044.88;10465221;28;20020;-77
2021/10/24 18:04:21;;;;;;;20.98;8.80;;;;;;;5.70;100.00;96039.19;10485081;28;20421;-77
2021/10/24 18:09:22;;;;;;;19.50;8.55;;;;;;;5.72;100.00;96047.78;10466065;28;20028;-73
2021/10/24 18:14:22;;;;;;;20.23;7.45;;;;;;;5.85;100.00;96046.91;10483396;28;20169;-76
2021/10/24 18:19:23;;;;;;;22.65;8.00;;;;;;;5.84;100.00;96050.63;10468688;28;20174;-72
2021/10/24 18:24:23;;;;;;;19.40;7.57;;;;;;;5.77;100.00;96054.13;10486461;28;20307;-77
2021/10/24 18:29:23;;;;;;;16.83;6.50;;;;;;;5.71;100.00;96054.16;10450374;28;20810;-71
2021/10/24 18:34:24;;;;;;;15.73;7.70;;;;;;;5.69;100.00;96075.69;10465171;28;20028;-77
2021/10/24 18:39:25;;;;;;;19.02;7.43;;;;;;;5.65;100.00;96075.31;10426268;28;20299;-73
2021/10/24 18:44:27;;;;;;;15.15;7.95;;;;;;;5.57;100.00;96069.38;10442093;28;20017;-75
2021/10/24 18:49:28;;;;;;;17.13;7.07;;;;;;;5.56;100.00;96081.88;10442974;28;20683;-72
2021/10/24 18:54:29;;;;;;;13.52;6.28;;;;;;;5.52;100.00;96080.66;10442217;28;20024;-77
2021/10/24 18:59:29;;;;;;;38.38;24.83;;;;;;;5.42;100.00;96081.06;10425618;28;20024;-77
2021/10/24 19:04:30;;;;;;;11.25;4.97;;;;;;;5.40;100.00;96076.97;10426009;28;20031;-70
2021/10/24 19:09:30;;;;;;;16.70;6.20;;;;;;;5.51;100.00;96072.88;10441609;28;20063;-71
2021/10/24 19:14:31;;;;;;;13.13;6.37;;;;;;;5.59;100.00;96075.31;10481712;28;20101;-73
2021/10/24 19:19:31;;;;;;;20.17;6.25;;;;;;;5.61;100.00;96076.75;10463266;28;20417;-75
2021/10/24 19:24:32;;;;;;;16.85;5.32;;;;;;;5.53;100.00;96076.16;10442038;28;20369;-70
2021/10/24 19:29:32;;;;;;;7.82;4.22;;;;;;;5.47;100.00;96077.81;10440372;28;20057;-72
2021/10/24 19:34:33;;;;;;;10.00;4.88;;;;;;;5.38;100.00;96081.72;10439946;28;20087;-74
2021/10/24 19:39:33;;;;;;;13.27;5.85;;;;;;;5.25;100.00;96075.34;10439115;28;20461;-74
2021/10/24 19:44:34;;;;;;;14.60;7.97;;;;;;;5.13;100.00;96079.66;10423100;28;20041;-71
2021/10/24 19:49:34;;;;;;;14.77;5.05;;;;;;;5.04;100.00;96072.91;10441968;28;20990;-74
2021/10/24 19:54:36;;;;;;;20.35;6.25;;;;;;;5.05;100.00;96085.19;10468579;28;20017;-68
2021/10/24 19:59:37;;;;;;;17.02;6.80;;;;;;;5.00;100.00;96090.34;10438450;28;20581;-71
2021/10/24 20:04:37;;;;;;;14.55;6.53;;;;;;;5.05;100.00;96095.84;10440838;28;20054;-73
2021/10/24 20:09:39;;;;;;;15.23;6.47;;;;;;;5.05;100.00;96103.84;10454705;28;20031;-74
2021/10/24 20:14:40;;;;;;;11.68;5.70;;;;;;;5.00;100.00;96101.81;10462992;28;20076;-70
2021/10/24 20:19:41;;;;;;;98.20;90.72;;;;;;;4.90;100.00;96096.88;10436564;28;20178;-72
2021/10/24 20:24:42;;;;;;;73.57;67.88;;;;;;;4.99;100.00;96094.81;10422128;28;20064;-71
2021/10/24 20:29:42;;;;;;;10.68;4.43;;;;;;;5.07;100.00;96085.81;10438351;28;20059;-76
2021/10/24 20:34:43;;;;;;;14.65;12.48;;;;;;;5.03;100.00;96096.06;10439066;28;20064;-70
2021/10/24 20:39:44;;;;;;;14.30;5.43;;;;;;;5.03;100.00;96098.72;10440128;28;20037;-74
2021/10/24 20:44:44;;;;;;;9.43;4.88;;;;;;;5.05;100.00;96095.84;10439053;28;20407;-75
2021/10/24 20:49:45;;;;;;;44.65;41.65;;;;;;;5.18;100.00;96079.88;10454526;28;20078;-76
2021/10/24 20:54:45;;;;;;;12.50;9.25;;;;;;;5.20;100.00;96080.47;10463914;28;20031;-75
2021/10/24 20:59:46;;;;;;;53.22;49.65;;;;;;;5.20;100.00;96088.47;10481169;28;20103;-71
2021/10/24 21:04:46;;;;;;;290.27;272.80;;;;;;;5.32;100.00;96094.03;10462221;28;20021;-71
2021/10/24 21:09:47;;;;;;;21.80;19.42;;;;;;;5.30;100.00;96088.91;10463229;28;20029;-71
2021/10/24 21:14:47;;;;;;;39.40;36.17;;;;;;;5.40;100.00;96091.16;10462748;28;20505;-75
2021/10/24 21:19:48;;;;;;;95.53;90.18;;;;;;;5.39;100.00;96099.34;10463987;28;20028;-70
2021/10/24 21:24:48;;;;;;;32.25;29.80;;;;;;;5.38;100.00;96081.72;10438995;28;20124;-76
2021/10/24 21:29:49;;;;;;;23.90;21.73;;;;;;;5.41;100.00;96094.63;10421153;28;20053;-71
2021/10/24 21:34:49;;;;;;;10.82;4.68;;;;;;;5.39;100.00;96094.81;10428267;28;20291;-76
2021/10/24 21:39:50;;;;;;;13.43;5.55;;;;;;;5.43;100.00;96088.06;10432103;28;20025;-71
2021/10/24 21:44:52;;;;;;;83.65;78.80;;;;;;;5.43;100.00;96090.72;10430267;28;20082;-71
2021/10/24 21:49:52;;;;;;;132.02;125.20;;;;;;;5.38;100.00;96103.84;10449641;28;20039;-71
2021/10/24 21:54:53;;;;;;;169.35;160.50;;;;;;;5.44;100.00;96095.03;10438646;28;20016;-72
2021/10/24 21:59:53;;;;;;;341.30;320.23;;;;;;;5.42;100.00;96096.25;10472666;28;20040;-75
2021/10/24 22:04:54;;;;;;;539.73;497.33;;;;;;;5.46;100.00;96098.31;10471035;28;20038;-74
2021/10/24 22:09:55;;;;;;;243.00;224.57;;;;;;;5.56;100.00;96099.75;10469594;28;20277;-71
2021/10/24 22:14:55;;;;;;;96.70;90.25;;;;;;;5.58;100.00;96095.84;10470874;28;20419;-71
2021/10/24 22:19:55;;;;;;;34.15;30.90;;;;;;;5.64;100.00;96095.00;10488279;28;20036;-72
2021/10/24 22:24:56;;;;;;;39.90;36.45;;;;;;;5.68;100.00;96105.25;10488874;28;20034;-73
2021/10/24 22:29:56;;;;;;;39.28;36.13;;;;;;;5.66;100.00;96097.44;10486639;28;20595;-71
2021/10/24 22:34:57;;;;;;;31.70;28.38;;;;;;;5.56;100.00;96099.75;10468571;28;20465;-72
2021/10/24 22:39:58;;;;;;;48.42;44.95;;;;;;;5.58;100.00;96090.50;10487380;28;20066;-71
2021/10/24 22:44:58;;;;;;;28.73;26.27;;;;;;;5.54;100.00;96105.28;10468249;28;20036;-71
2021/10/24 22:49:58;;;;;;;25.92;23.35;;;;;;;5.57;100.00;96093.38;10468803;28;20143;-71
2021/10/24 22:55:00;;;;;;;37.90;34.83;;;;;;;5.42;100.00;96097.06;10467447;28;20053;-72
2021/10/24 23:00:01;;;;;;;60.10;55.90;;;;;;;5.35;100.00;96100.78;10468543;28;20290;-71
2021/10/24 23:05:01;;;;;;;71.00;66.50;;;;;;;5.33;100.00;96081.50;10488543;28;20734;-70
2021/10/24 23:10:06;;;;;;;25.63;18.92;;;;;;;5.34;100.00;96069.81;10471168;28;20034;-71
2021/10/24 23:15:07;;;;;;;36.78;34.13;;;;;;;5.44;100.00;96084.38;10466697;28;20012;-71